Time;durP1;ratioP1;P1;durP2;ratioP2;P2;SDS_P1;SDS_P2;PMS_P1;PMS_P2;Temp;Humidity;BMP_temperature;BMP_pressure;BME280_temperature;BME280_humidity;BME280_pressure;Samples;Min_cycle;Max_cycle;Signal;HPM_P1;HPM_P2
2024/01/30 00:00:23;;;;;;;6.40;2.47;;;;;;;0.42;90.60;100579.44;4997530;28;20104;-55
2024/01/30 00:02:49;;;;;;;7.50;3.53;;;;;;;0.40;90.10;100575.13;4997169;28;20033;-52
2024/01/30 00:05:15;;;;;;;7.10;3.15;;;;;;;0.45;90.05;100578.66;4996754;28;20064;-52
2024/01/30 00:07:41;;;;;;;8.98;3.78;;;;;;;0.42;90.44;100574.31;4994177;28;20049;-52
2024/01/30 00:10:07;;;;;;;7.18;2.80;;;;;;;0.44;90.14;100564.13;4987515;28;20777;-56
2024/01/30 00:12:33;;;;;;;6.60;3.50;;;;;;;0.43;90.09;100557.28;4996582;28;20125;-51
2024/01/30 00:14:59;;;;;;;5.90;3.38;;;;;;;0.42;90.01;100569.19;4996264;28;20044;-53
2024/01/30 00:17:26;;;;;;;7.22;3.15;;;;;;;0.42;90.18;100566.66;4963352;28;20614;-52
2024/01/30 00:19:52;;;;;;;5.97;3.53;;;;;;;0.39;90.16;100561.47;4996032;28;20038;-51
2024/01/30 00:22:18;;;;;;;5.05;2.63;;;;;;;0.21;90.32;100527.84;4994655;28;20070;-55
2024/01/30 00:24:44;;;;;;;5.38;2.50;;;;;;;0.42;90.48;100560.66;4996031;28;20041;-55
2024/01/30 00:27:10;;;;;;;6.40;3.50;;;;;;;0.23;90.21;100530.44;4994381;28;20050;-52
2024/01/30 00:29:36;;;;;;;8.38;3.65;;;;;;;0.37;90.05;100552.03;4978484;28;20069;-54
2024/01/30 00:32:02;;;;;;;3.92;2.17;;;;;;;0.43;90.28;100567.50;4994186;28;20139;-53
2024/01/30 00:34:28;;;;;;;5.72;2.80;;;;;;;0.42;90.25;100563.22;4996328;28;20056;-51
2024/01/30 00:36:54;;;;;;;6.65;2.35;;;;;;;0.49;90.48;100565.09;4993412;28;20042;-49
2024/01/30 00:39:20;;;;;;;4.60;2.17;;;;;;;0.27;90.05;100522.00;4999641;28;20045;-50
2024/01/30 00:41:46;;;;;;;3.58;1.92;;;;;;;0.46;89.99;100559.91;5001136;28;20052;-53
2024/01/30 00:44:12;;;;;;;4.00;2.33;;;;;;;0.14;90.08;100486.78;4979592;28;20045;-51
2024/01/30 00:46:38;;;;;;;6.90;3.78;;;;;;;0.48;89.95;100552.25;4999622;28;20486;-54
2024/01/30 00:49:04;;;;;;;5.30;2.40;;;;;;;0.46;90.18;100549.69;5001268;28;20048;-52
2024/01/30 00:51:30;;;;;;;8.20;3.20;;;;;;;0.42;90.12;100545.31;4998549;28;20050;-52
2024/01/30 00:53:56;;;;;;;7.05;3.55;;;;;;;0.43;89.80;100549.59;4987472;28;20048;-53
2024/01/30 00:56:23;;;;;;;6.60;3.00;;;;;;;0.47;89.93;100551.41;4995647;28;20046;-50
2024/01/30 00:58:49;;;;;;;4.43;2.55;;;;;;;0.27;90.14;100511.75;4998307;28;20049;-51
2024/01/30 01:01:15;;;;;;;9.07;3.53;;;;;;;0.47;90.21;100551.41;4977911;28;20124;-52
2024/01/30 01:03:43;;;;;;;7.95;3.97;;;;;;;0.53;90.16;100553.19;4994969;28;20165;-49
2024/01/30 01:06:09;;;;;;;7.25;3.35;;;;;;;0.55;89.95;100547.31;4994128;28;20045;-54
2024/01/30 01:08:35;;;;;;;2.85;1.90;;;;;;;0.35;89.89;100506.00;4999174;28;20403;-56
2024/01/30 01:11:03;;;;;;;5.15;3.10;;;;;;;0.56;89.62;100549.03;5001092;28;20839;-52
2024/01/30 01:13:29;;;;;;;6.78;3.15;;;;;;;0.54;89.42;100558.34;4994284;28;20502;-50
2024/01/30 01:15:55;;;;;;;7.38;3.45;;;;;;;0.54;89.45;100542.16;5000967;28;20132;-52
2024/01/30 01:18:21;;;;;;;3.83;2.03;;;;;;;0.54;89.65;100537.03;4996544;28;20053;-52
2024/01/30 01:20:47;;;;;;;5.20;2.35;;;;;;;0.57;89.87;100532.00;4996186;28;20100;-53
2024/01/30 01:23:13;;;;;;;5.32;3.15;;;;;;;0.57;89.62;100540.53;4992563;28;20053;-55
2024/01/30 01:25:38;;;;;;;5.28;2.47;;;;;;;0.55;89.44;100531.09;4998939;28;20042;-53
2024/01/30 01:28:05;;;;;;;4.85;2.72;;;;;;;0.59;89.72;100535.41;5000896;28;20084;-52
2024/01/30 01:30:31;;;;;;;6.22;3.05;;;;;;;0.32;89.50;100482.03;4992730;28;20049;-54
2024/01/30 01:33:00;;;;;;;7.00;3.17;;;;;;;0.61;89.78;100529.50;4995365;28;20041;-56
2024/01/30 01:35:26;;;;;;;4.35;2.63;;;;;;;0.60;89.38;100516.69;4994985;28;20482;-54
2024/01/30 01:37:56;;;;;;;5.22;3.05;;;;;;;0.61;89.62;100511.59;5002877;28;20054;-55
2024/01/30 01:40:26;;;;;;;5.65;2.88;;;;;;;0.60;89.58;100512.44;5001688;28;20034;-54
2024/01/30 01:42:53;;;;;;;5.28;2.92;;;;;;;0.61;89.53;100508.19;4970891;28;20108;-55
2024/01/30 01:45:19;;;;;;;3.90;1.95;;;;;;;0.57;89.29;100507.28;5006731;28;20084;-53
2024/01/30 01:47:47;;;;;;;5.82;2.58;;;;;;;0.59;89.78;100512.41;5006757;28;20407;-55
2024/01/30 01:50:14;;;;;;;8.00;3.50;;;;;;;0.62;89.59;100509.91;5006578;28;20038;-53
2024/01/30 01:52:41;;;;;;;5.93;2.38;;;;;;;0.68;89.78;100522.81;4987196;28;20038;-55
2024/01/30 01:55:08;;;;;;;4.70;2.20;;;;;;;0.72;89.40;100525.47;4986761;28;20130;-52
2024/01/30 01:57:38;;;;;;;7.00;3.58;;;;;;;0.75;89.35;100511.84;4985472;28;20069;-51
2024/01/30 02:00:04;;;;;;;6.20;3.15;;;;;;;0.49;89.48;100465.31;4986746;28;20074;-54
2024/01/30 02:02:36;;;;;;;7.88;3.58;;;;;;;0.74;88.92;100510.13;4986323;28;20568;-54
2024/01/30 02:05:02;;;;;;;7.13;3.20;;;;;;;0.45;89.07;100467.78;4997142;28;20113;-54
2024/01/30 02:07:31;;;;;;;4.30;2.28;;;;;;;0.78;88.98;100515.34;5005400;28;20537;-54
2024/01/30 02:09:57;;;;;;;5.07;2.75;;;;;;;0.77;89.15;100516.19;4988413;28;20050;-53
2024/01/30 02:12:23;;;;;;;5.53;3.08;;;;;;;0.81;89.11;100515.38;5006130;28;20066;-54
2024/01/30 02:14:50;;;;;;;8.10;4.00;;;;;;;0.88;88.86;100510.38;5004277;28;20052;-52
2024/01/30 02:17:18;;;;;;;7.10;3.33;;;;;;;0.96;89.22;100514.78;5005996;28;20477;-51
2024/01/30 02:19:44;;;;;;;6.40;3.50;;;;;;;0.99;88.86;100521.69;5004674;28;20113;-53
2024/01/30 02:22:10;;;;;;;3.45;1.90;;;;;;;0.95;88.46;100507.94;4987617;28;20057;-52
2024/01/30 02:24:38;;;;;;;3.80;1.95;;;;;;;0.93;88.47;100495.97;4987673;28;20041;-55
2024/01/30 02:27:04;;;;;;;8.07;3.38;;;;;;;0.96;87.91;100507.13;4991891;28;20072;-54
2024/01/30 02:29:37;;;;;;;6.95;2.65;;;;;;;0.96;88.11;100512.22;4978459;28;20082;-53
2024/01/30 02:32:05;;;;;;;6.88;3.33;;;;;;;0.97;88.09;100503.72;4946762;28;20038;-51
2024/01/30 02:34:31;;;;;;;4.00;2.47;;;;;;;1.01;88.15;100502.94;5001179;28;20046;-53
2024/01/30 02:36:57;;;;;;;6.22;3.13;;;;;;;1.03;88.03;100506.41;5007753;28;20312;-56
2024/01/30 02:39:23;;;;;;;6.68;3.03;;;;;;;1.07;88.09;100505.59;4990592;28;20509;-57
2024/01/30 02:41:49;;;;;;;9.55;4.10;;;;;;;1.17;88.03;100504.91;5002648;28;20532;-56
2024/01/30 02:44:15;;;;;;;7.82;3.70;;;;;;;1.19;87.61;100499.84;4986065;28;20067;-51
2024/01/30 02:46:41;;;;;;;5.20;2.22;;;;;;;1.18;87.52;100491.28;4987939;28;20050;-48
2024/01/30 02:49:07;;;;;;;6.90;3.45;;;;;;;1.19;87.08;100500.69;5005796;28;20536;-48
2024/01/30 02:51:33;;;;;;;8.63;3.58;;;;;;;1.19;87.35;100495.56;5002513;28;20556;-52
2024/01/30 02:53:59;;;;;;;6.88;3.45;;;;;;;1.27;86.86;100503.38;4990309;28;20066;-56
2024/01/30 02:56:25;;;;;;;5.57;3.38;;;;;;;1.29;86.69;100501.69;4988581;28;20124;-57
2024/01/30 02:58:51;;;;;;;6.95;3.28;;;;;;;1.37;86.95;100514.63;4992562;28;20069;-54
2024/01/30 03:01:17;;;;;;;7.22;3.33;;;;;;;1.38;86.51;100521.47;4991808;28;20041;-57
2024/01/30 03:03:43;;;;;;;7.45;2.85;;;;;;;1.37;86.00;100514.63;5007612;28;20056;-51
2024/01/30 03:06:09;;;;;;;5.35;2.75;;;;;;;1.30;86.00;100500.00;4996878;28;20042;-54
2024/01/30 03:08:35;;;;;;;6.07;3.72;;;;;;;1.44;86.20;100521.56;5009153;28;20045;-52
2024/01/30 03:11:01;;;;;;;6.13;3.28;;;;;;;1.29;85.73;100494.03;4995635;28;20042;-53
2024/01/30 03:13:27;;;;;;;6.20;3.10;;;;;;;1.42;85.57;100516.41;4989927;28;20479;-57
2024/01/30 03:15:54;;;;;;;9.63;4.50;;;;;;;1.42;85.53;100525.78;4997293;28;20053;-55
2024/01/30 03:18:20;;;;;;;7.25;3.35;;;;;;;1.27;85.61;100505.94;4988165;28;20411;-55
2024/01/30 03:20:46;;;;;;;4.72;2.72;;;;;;;1.48;85.43;100531.03;4998617;28;20539;-49
2024/01/30 03:23:12;;;;;;;8.00;3.42;;;;;;;1.50;85.49;100526.78;4990950;28;20251;-56
2024/01/30 03:25:38;;;;;;;5.97;3.03;;;;;;;1.46;85.13;100522.47;4998057;28;20133;-58
2024/01/30 03:28:04;;;;;;;6.10;3.20;;;;;;;1.34;85.03;100506.91;4971929;28;20073;-58
2024/01/30 03:30:30;;;;;;;6.55;3.08;;;;;;;1.55;84.92;100535.41;5007475;28;20073;-57
2024/01/30 03:32:56;;;;;;;7.07;4.10;;;;;;;1.57;84.98;100526.91;5006452;28;20370;-57
2024/01/30 03:35:22;;;;;;;4.55;2.45;;;;;;;1.35;85.03;100493.25;4999190;28;20046;-44
2024/01/30 03:37:48;;;;;;;5.88;3.28;;;;;;;1.58;85.00;100530.31;4990378;28;20457;-58
2024/01/30 03:40:13;;;;;;;6.65;2.95;;;;;;;1.60;85.07;100529.53;5000934;28;20038;-57
2024/01/30 03:42:39;;;;;;;6.13;3.40;;;;;;;1.60;84.54;100537.22;5008079;28;20048;-56
2024/01/30 03:45:06;;;;;;;4.78;3.22;;;;;;;1.67;84.66;100544.13;5003613;28;20045;-53
2024/01/30 03:47:32;;;;;;;6.85;3.15;;;;;;;1.72;84.98;100531.41;4987249;28;20133;-55
2024/01/30 03:49:58;;;;;;;5.47;2.65;;;;;;;1.56;84.20;100506.41;4975392;28;20046;-55
2024/01/30 03:52:24;;;;;;;8.05;3.95;;;;;;;1.73;84.15;100533.13;5001602;28;20082;-56
2024/01/30 03:54:50;;;;;;;6.65;3.65;;;;;;;1.78;84.07;100543.47;4999239;28;20062;-57
2024/01/30 03:57:16;;;;;;;8.93;4.10;;;;;;;1.82;83.77;100542.66;4988609;28;20046;-53
2024/01/30 03:59:42;;;;;;;5.57;2.95;;;;;;;1.77;83.91;100536.59;4971059;28;20046;-54
2024/01/30 04:02:10;;;;;;;9.07;4.00;;;;;;;1.79;84.03;100543.47;4987088;28;20129;-55
2024/01/30 04:04:37;;;;;;;6.13;3.22;;;;;;;1.80;83.67;100544.31;4987013;28;20467;-57
2024/01/30 04:07:02;;;;;;;7.95;3.92;;;;;;;1.73;83.68;100551.06;4988798;28;20034;-55
2024/01/30 04:09:32;;;;;;;7.43;3.90;;;;;;;1.74;83.60;100552.78;4987616;28;20075;-53
2024/01/30 04:11:58;;;;;;;4.88;2.70;;;;;;;1.83;84.06;100552.94;4963445;28;20048;-54
2024/01/30 04:14:24;;;;;;;6.20;2.95;;;;;;;1.83;83.44;100554.66;4986855;28;20129;-55
2024/01/30 04:16:50;;;;;;;8.05;3.67;;;;;;;1.82;83.57;100545.22;4970166;28;20133;-57
2024/01/30 04:19:16;;;;;;;4.50;2.97;;;;;;;1.89;83.74;100545.31;4986933;28;20046;-57
2024/01/30 04:21:42;;;;;;;7.82;3.67;;;;;;;1.93;83.57;100541.13;4988182;28;20399;-53
2024/01/30 04:24:08;;;;;;;11.18;4.38;;;;;;;2.06;83.28;100546.44;4988591;28;20046;-55
2024/01/30 04:26:36;;;;;;;8.43;3.95;;;;;;;2.08;83.20;100542.19;4985782;28;20097;-57
2024/01/30 04:29:02;;;;;;;6.45;2.75;;;;;;;2.09;82.89;100538.75;4986509;28;20038;-53
2024/01/30 04:31:28;;;;;;;5.57;2.38;;;;;;;1.62;82.64;100463.75;4988412;28;20038;-56
2024/01/30 04:33:54;;;;;;;8.57;4.28;;;;;;;1.97;82.80;100524.94;4986859;28;20049;-51
2024/01/30 04:36:20;;;;;;;7.85;3.63;;;;;;;1.99;82.72;100533.50;4996204;28;20061;-55
2024/01/30 04:38:45;;;;;;;13.68;4.70;;;;;;;2.06;82.82;100533.59;4980348;28;20103;-51
2024/01/30 04:41:11;;;;;;;6.28;3.42;;;;;;;1.95;82.73;100512.06;4999902;28;20045;-58
2024/01/30 04:43:38;;;;;;;5.78;3.13;;;;;;;2.15;82.69;100544.84;4963504;28;20287;-56
2024/01/30 04:46:04;;;;;;;9.52;4.30;;;;;;;2.11;82.53;100555.03;4998577;28;20050;-54
2024/01/30 04:48:30;;;;;;;7.40;3.92;;;;;;;2.08;82.54;100546.47;5001320;28;20092;-53
2024/01/30 04:50:56;;;;;;;10.77;4.20;;;;;;;2.13;82.49;100539.69;4997392;28;20789;-57
2024/01/30 04:53:22;;;;;;;9.45;4.63;;;;;;;2.23;82.43;100538.97;4994921;28;20088;-56
2024/01/30 04:55:48;;;;;;;7.88;3.88;;;;;;;2.24;82.03;100537.25;4993439;28;20041;-56
2024/01/30 04:58:14;;;;;;;6.97;3.03;;;;;;;1.98;81.76;100496.75;5001036;28;20089;-56
2024/01/30 05:00:39;;;;;;;7.05;3.88;;;;;;;2.20;82.06;100533.78;4990944;28;20038;-56
2024/01/30 05:03:05;;;;;;;6.25;3.67;;;;;;;1.99;81.98;100505.31;4994853;28;20038;-54
2024/01/30 05:05:31;;;;;;;10.35;4.15;;;;;;;2.16;81.77;100536.28;4999032;28;20064;-55
2024/01/30 05:07:57;;;;;;;7.63;3.75;;;;;;;2.18;82.08;100530.34;4981051;28;20792;-53
2024/01/30 05:10:23;;;;;;;5.97;3.17;;;;;;;2.16;82.08;100537.16;5007156;28;20042;-53
2024/01/30 05:12:49;;;;;;;11.82;4.63;;;;;;;2.22;81.75;100532.09;5005547;28;20050;-55
2024/01/30 05:15:15;;;;;;;6.78;3.55;;;;;;;2.19;81.79;100537.19;5000284;28;20042;-56
2024/01/30 05:17:41;;;;;;;8.98;4.15;;;;;;;2.16;81.83;100549.97;4972765;28;20041;-56
2024/01/30 05:20:07;;;;;;;8.75;4.10;;;;;;;2.16;82.19;100547.41;5001790;28;20536;-59
2024/01/30 05:22:33;;;;;;;9.77;3.88;;;;;;;2.20;82.10;100549.16;4988108;28;20049;-55
2024/01/30 05:24:59;;;;;;;6.45;3.65;;;;;;;2.00;82.27;100519.81;4991446;28;20034;-55
2024/01/30 05:27:25;;;;;;;7.95;3.85;;;;;;;2.19;82.09;100562.00;4968192;28;20507;-56
2024/01/30 05:29:51;;;;;;;7.03;3.70;;;;;;;2.16;82.17;100549.97;4998143;28;20042;-56
2024/01/30 05:32:16;;;;;;;8.15;3.72;;;;;;;2.17;82.41;100556.84;4988366;28;20069;-55
2024/01/30 05:34:42;;;;;;;9.52;4.28;;;;;;;2.22;82.39;100551.75;5004852;28;20045;-57
2024/01/30 05:37:09;;;;;;;7.75;3.88;;;;;;;2.24;82.05;100552.66;5004867;28;20079;-54
2024/01/30 05:39:35;;;;;;;7.18;3.95;;;;;;;2.22;81.90;100555.19;4997051;28;20052;-55
2024/01/30 05:42:01;;;;;;;7.95;4.10;;;;;;;2.21;82.37;100547.47;4985548;28;20697;-54
2024/01/30 05:44:27;;;;;;;11.43;5.18;;;;;;;2.10;82.33;100530.22;4986628;28;20061;-53
2024/01/30 05:46:53;;;;;;;11.05;4.80;;;;;;;2.30;82.29;100556.16;4986436;28;20038;-55
2024/01/30 05:49:19;;;;;;;9.30;4.65;;;;;;;2.03;82.27;100500.22;4991378;28;20045;-57
2024/01/30 05:51:45;;;;;;;12.75;5.57;;;;;;;2.31;82.13;100531.34;5005894;28;20525;-55
2024/01/30 05:54:11;;;;;;;13.63;5.43;;;;;;;2.49;81.90;100580.34;5005857;28;20038;-52
2024/01/30 05:56:37;;;;;;;11.25;5.35;;;;;;;2.47;81.69;100571.75;5006328;28;20053;-53
2024/01/30 05:59:03;;;;;;;11.82;5.10;;;;;;;2.46;81.83;100570.88;4988544;28;20053;-54
2024/01/30 06:01:29;;;;;;;8.93;4.13;;;;;;;2.55;81.58;100570.16;5003966;28;20550;-55
2024/01/30 06:03:55;;;;;;;10.15;5.10;;;;;;;2.40;81.51;100544.31;4987654;28;20069;-55
2024/01/30 06:06:21;;;;;;;11.15;5.20;;;;;;;2.52;81.32;100573.53;4989990;28;20050;-55
2024/01/30 06:08:47;;;;;;;13.90;5.63;;;;;;;2.54;81.36;100586.41;4998682;28;20288;-55
2024/01/30 06:11:13;;;;;;;7.95;4.45;;;;;;;2.36;81.29;100548.53;4992006;28;20518;-56
2024/01/30 06:13:39;;;;;;;33.92;5.60;;;;;;;2.65;81.40;100587.38;5007776;28;20037;-56
2024/01/30 06:16:05;;;;;;;11.52;5.63;;;;;;;2.59;81.19;100558.22;5009925;28;20096;-55
2024/01/30 06:18:32;;;;;;;11.43;4.45;;;;;;;2.71;80.72;100584.03;4992330;28;20506;-52
2024/01/30 06:20:57;;;;;;;8.90;4.57;;;;;;;2.67;80.85;100588.25;4992036;28;20264;-56
2024/01/30 06:23:23;;;;;;;14.70;5.95;;;;;;;2.75;80.95;100586.66;5002373;28;20510;-58
2024/01/30 06:25:49;;;;;;;12.75;5.30;;;;;;;2.83;80.67;100597.00;4972800;28;20038;-57
2024/01/30 06:28:15;;;;;;;8.90;4.82;;;;;;;2.85;80.53;100597.88;4990275;28;20038;-59
2024/01/30 06:30:41;;;;;;;16.58;5.70;;;;;;;2.96;80.33;100592.03;4990180;28;20049;-57
2024/01/30 06:33:07;;;;;;;13.23;5.18;;;;;;;2.86;80.14;100599.63;4972373;28;20537;-56
2024/01/30 06:35:33;;;;;;;6.90;4.05;;;;;;;2.87;79.92;100599.66;4998338;28;20245;-60
2024/01/30 06:37:59;;;;;;;8.55;4.28;;;;;;;2.65;79.91;100563.44;5002728;28;20049;-58
2024/01/30 06:40:25;;;;;;;7.95;4.00;;;;;;;2.81;79.46;100602.13;5000334;28;20041;-57
2024/01/30 06:42:50;;;;;;;12.20;5.22;;;;;;;2.82;79.93;100590.16;4979655;28;20043;-61
2024/01/30 06:45:16;;;;;;;14.23;5.35;;;;;;;2.94;79.36;100603.97;5002741;28;20184;-60
2024/01/30 06:47:42;;;;;;;11.38;5.05;;;;;;;2.96;79.45;100609.16;4995885;28;20041;-58
2024/01/30 06:50:08;;;;;;;10.30;5.00;;;;;;;2.99;78.92;100611.75;4997551;28;20180;-53
2024/01/30 06:52:34;;;;;;;12.05;4.75;;;;;;;3.00;79.13;100610.91;4994777;28;20053;-54
2024/01/30 06:55:01;;;;;;;8.88;4.43;;;;;;;2.98;79.20;100603.16;5004918;28;20371;-56
2024/01/30 06:57:28;;;;;;;11.73;4.82;;;;;;;2.84;78.92;100560.22;4998193;28;20057;-54
2024/01/30 06:59:53;;;;;;;14.13;5.38;;;;;;;3.16;79.04;100612.78;4989870;28;20041;-56
2024/01/30 07:02:19;;;;;;;11.13;5.10;;;;;;;3.18;78.34;100615.38;5007275;28;20044;-54
2024/01/30 07:04:45;;;;;;;11.00;4.95;;;;;;;3.17;78.51;100611.94;4982294;28;20116;-54
2024/01/30 07:07:12;;;;;;;11.48;5.60;;;;;;;3.24;78.76;100620.59;4955663;28;20061;-59
2024/01/30 07:09:39;;;;;;;12.80;4.63;;;;;;;3.15;78.05;100593.06;4989506;28;20046;-58
2024/01/30 07:12:06;;;;;;;11.95;4.57;;;;;;;3.12;77.95;100587.06;4990887;28;20037;-58
2024/01/30 07:14:32;;;;;;;10.00;4.50;;;;;;;3.26;77.88;100617.16;4996962;28;20527;-56
2024/01/30 07:16:57;;;;;;;11.52;5.38;;;;;;;3.16;78.34;100591.38;4988544;28;20038;-55
2024/01/30 07:19:23;;;;;;;10.68;5.10;;;;;;;3.17;77.68;100593.97;4979113;28;20041;-59
2024/01/30 07:21:49;;;;;;;10.40;4.70;;;;;;;3.29;77.41;100591.53;4981600;28;20089;-61
2024/01/30 07:24:15;;;;;;;12.02;5.97;;;;;;;3.49;77.31;100626.81;4995762;28;20100;-58
2024/01/30 07:26:41;;;;;;;9.43;4.85;;;;;;;3.49;76.94;100625.13;5002475;28;20044;-57
2024/01/30 07:29:07;;;;;;;10.75;4.88;;;;;;;3.47;77.14;100631.06;4997776;28;20038;-57
2024/01/30 07:31:33;;;;;;;12.70;4.82;;;;;;;3.46;77.05;100634.47;4997299;28;20052;-60
2024/01/30 07:33:59;;;;;;;11.23;5.63;;;;;;;3.50;77.38;100642.28;4979981;28;20034;-58
2024/01/30 07:36:24;;;;;;;11.68;5.00;;;;;;;3.57;77.15;100638.03;5001741;28;20053;-59
2024/01/30 07:38:50;;;;;;;12.48;5.47;;;;;;;3.41;76.96;100619.03;5001864;28;20050;-60
2024/01/30 07:41:16;;;;;;;14.35;6.30;;;;;;;3.66;76.96;100640.69;4996007;28;20045;-59
2024/01/30 07:43:43;;;;;;;14.68;6.03;;;;;;;3.70;76.69;100637.31;4972927;28;20065;-59
2024/01/30 07:46:10;;;;;;;10.18;5.47;;;;;;;3.75;76.26;100640.78;5002203;28;20053;-59
2024/01/30 07:48:35;;;;;;;14.43;5.20;;;;;;;3.84;76.57;100643.41;4996980;28;20057;-60
2024/01/30 07:51:03;;;;;;;11.07;5.20;;;;;;;3.50;76.68;100575.44;5000260;28;20052;-61
2024/01/30 07:53:30;;;;;;;10.80;5.50;;;;;;;3.83;76.18;100633.97;4979203;28;20465;-59
2024/01/30 07:55:56;;;;;;;13.40;5.63;;;;;;;3.68;76.57;100633.84;5002080;28;20045;-61
2024/01/30 07:58:23;;;;;;;14.20;6.55;;;;;;;3.64;77.16;100630.38;4980093;28;20064;-60
2024/01/30 08:00:52;;;;;;;13.57;5.97;;;;;;;3.69;77.44;100638.13;4997484;28;20864;-59
2024/01/30 08:03:18;;;;;;;16.52;7.10;;;;;;;3.69;77.86;100633.88;4997667;28;20065;-58
2024/01/30 08:05:44;;;;;;;11.32;5.68;;;;;;;3.66;78.36;100640.69;4996260;28;20042;-59
2024/01/30 08:08:10;;;;;;;12.38;5.13;;;;;;;3.16;79.47;100566.53;4998514;28;20429;-59
2024/01/30 08:10:36;;;;;;;13.35;5.82;;;;;;;3.49;80.53;100635.41;4999496;28;20458;-60
2024/01/30 08:13:02;;;;;;;10.75;5.15;;;;;;;3.52;80.96;100630.28;4994775;28;20053;-56
2024/01/30 08:15:28;;;;;;;9.77;5.60;;;;;;;3.33;81.27;100636.09;5003177;28;20033;-59
2024/01/30 08:17:57;;;;;;;13.60;4.70;;;;;;;3.32;81.86;100636.94;4999481;28;20053;-62
2024/01/30 08:20:25;;;;;;;12.60;6.38;;;;;;;3.11;81.98;100601.59;4994858;28;20044;-62
2024/01/30 08:22:52;;;;;;;13.73;6.68;;;;;;;3.41;82.56;100644.72;4995564;28;20046;-62
2024/01/30 08:25:18;;;;;;;18.48;7.13;;;;;;;3.51;82.66;100643.97;4994803;28;20038;-60
2024/01/30 08:27:45;;;;;;;15.93;6.07;;;;;;;3.48;82.64;100638.81;4981048;28;20153;-57
2024/01/30 08:30:11;;;;;;;12.52;5.25;;;;;;;3.52;82.58;100652.53;5006229;28;20041;-60
2024/01/30 08:32:37;;;;;;;11.70;5.47;;;;;;;3.38;82.29;100649.84;5000027;28;20514;-61
2024/01/30 08:35:04;;;;;;;14.00;6.18;;;;;;;3.31;82.47;100632.63;5007031;28;20049;-60
2024/01/30 08:37:30;;;;;;;11.75;5.10;;;;;;;3.25;83.21;100638.56;5005102;28;20101;-62
2024/01/30 08:39:56;;;;;;;14.82;6.60;;;;;;;3.21;83.51;100630.81;4994951;28;20089;-61
2024/01/30 08:42:22;;;;;;;14.15;6.63;;;;;;;3.37;83.99;100625.84;4938098;28;20111;-61
2024/01/30 08:44:53;;;;;;;12.85;6.38;;;;;;;3.53;84.43;100628.56;4987379;28;20046;-61
2024/01/30 08:47:19;;;;;;;12.65;6.18;;;;;;;3.59;84.51;100628.63;4969946;28;20533;-60
2024/01/30 08:49:45;;;;;;;15.45;6.50;;;;;;;3.29;84.79;100600.94;4986036;28;20035;-61
2024/01/30 08:52:11;;;;;;;12.48;6.00;;;;;;;3.44;85.29;100655.06;4986135;28;20133;-61
2024/01/30 08:54:37;;;;;;;12.07;5.07;;;;;;;3.39;85.43;100643.88;4987163;28;20053;-61
2024/01/30 08:57:04;;;;;;;22.42;6.90;;;;;;;3.12;85.89;100613.59;4987652;28;20050;-61
2024/01/30 08:59:30;;;;;;;15.52;6.07;;;;;;;3.38;86.19;100647.28;4985731;28;20046;-62
2024/01/30 09:01:58;;;;;;;15.02;5.93;;;;;;;3.36;85.69;100646.38;4987030;28;20046;-62
2024/01/30 09:04:24;;;;;;;14.90;6.75;;;;;;;3.34;86.10;100642.97;4992762;28;20100;-62
2024/01/30 09:06:51;;;;;;;13.57;6.10;;;;;;;3.30;86.38;100636.91;4973124;28;20784;-62
2024/01/30 09:09:17;;;;;;;13.00;5.85;;;;;;;3.24;86.67;100624.03;5001190;28;20047;-59
2024/01/30 09:11:44;;;;;;;14.23;6.03;;;;;;;2.86;86.51;100574.81;5000489;28;20072;-56
2024/01/30 09:14:10;;;;;;;12.70;5.53;;;;;;;3.32;86.90;100639.50;4998496;28;20524;-61
2024/01/30 09:16:36;;;;;;;11.10;5.90;;;;;;;3.47;87.30;100644.78;4999099;28;20042;-60
2024/01/30 09:19:02;;;;;;;12.10;5.95;;;;;;;3.64;86.92;100632.09;4953789;28;20329;-60
2024/01/30 09:21:28;;;;;;;10.40;5.60;;;;;;;3.77;86.65;100629.63;4986473;28;20530;-59
2024/01/30 09:24:05;;;;;;;12.05;5.70;;;;;;;3.93;86.18;100634.91;5010534;28;20056;-61
2024/01/30 09:26:31;;;;;;;13.45;5.85;;;;;;;4.07;86.49;100625.59;4978137;28;20067;-62
2024/01/30 09:28:57;;;;;;;12.88;5.70;;;;;;;4.18;85.74;100637.69;4993733;28;20172;-61
2024/01/30 09:31:23;;;;;;;11.85;5.95;;;;;;;4.31;85.61;100627.44;4981099;28;20054;-61
2024/01/30 09:33:51;;;;;;;11.55;5.55;;;;;;;4.31;85.02;100625.72;4977290;28;20046;-61
2024/01/30 09:36:19;;;;;;;10.98;6.22;;;;;;;4.13;83.87;100634.22;4992369;28;20068;-59
2024/01/30 09:38:45;;;;;;;15.97;5.47;;;;;;;4.11;83.46;100629.91;5000216;28;20592;-61
2024/01/30 09:41:11;;;;;;;12.77;6.03;;;;;;;4.07;83.92;100635.88;4991054;28;20034;-61
2024/01/30 09:43:39;;;;;;;10.50;6.00;;;;;;;3.91;84.30;100598.03;4995227;28;20049;-61
2024/01/30 09:46:05;;;;;;;14.05;6.72;;;;;;;4.08;84.31;100614.44;5000019;28;20050;-60
2024/01/30 09:48:32;;;;;;;15.75;6.40;;;;;;;4.14;83.96;100611.88;4996471;28;20046;-59
2024/01/30 09:50:58;;;;;;;13.45;6.15;;;;;;;4.11;83.72;100604.16;4994158;28;20177;-60
2024/01/30 09:53:24;;;;;;;11.80;5.78;;;;;;;4.03;83.88;100590.41;4995804;28;20198;-59
2024/01/30 09:55:51;;;;;;;16.00;6.28;;;;;;;4.14;83.58;100594.75;5000252;28;20056;-60
2024/01/30 09:58:17;;;;;;;13.15;6.30;;;;;;;4.39;83.15;100618.94;5003718;28;20133;-51
2024/01/30 10:00:43;;;;;;;14.60;6.43;;;;;;;4.49;82.66;100619.84;5004457;28;20121;-51
2024/01/30 10:03:09;;;;;;;14.07;6.25;;;;;;;4.51;82.04;100615.53;5004487;28;20518;-59
2024/01/30 10:05:37;;;;;;;12.45;6.13;;;;;;;4.52;81.81;100620.72;5004205;28;20096;-61
2024/01/30 10:08:06;;;;;;;15.75;6.30;;;;;;;4.31;81.72;100583.69;4977710;28;20057;-55
2024/01/30 10:10:32;;;;;;;12.85;6.72;;;;;;;4.42;81.47;100615.50;4984981;28;20034;-57
2024/01/30 10:12:58;;;;;;;13.55;6.65;;;;;;;4.32;81.38;100614.59;4952683;28;20061;-54
2024/01/30 10:15:24;;;;;;;14.13;6.78;;;;;;;4.54;81.00;100631.03;4985065;28;20046;-53
2024/01/30 10:17:50;;;;;;;16.00;6.97;;;;;;;4.66;81.29;100626.78;4994925;28;20637;-49
2024/01/30 10:20:17;;;;;;;12.43;6.32;;;;;;;4.71;80.22;100625.97;5005226;28;20069;-49
2024/01/30 10:22:44;;;;;;;12.80;6.15;;;;;;;4.79;79.88;100613.97;4983440;28;20044;-48
2024/01/30 10:25:10;;;;;;;15.10;6.15;;;;;;;4.80;78.95;100626.00;4987554;28;20029;-51
2024/01/30 10:27:36;;;;;;;14.07;6.20;;;;;;;4.77;79.02;100618.22;4987296;28;20042;-51
2024/01/30 10:30:03;;;;;;;15.98;6.50;;;;;;;4.81;78.64;100620.00;4997681;28;20521;-51
2024/01/30 10:32:32;;;;;;;12.80;6.43;;;;;;;4.86;78.01;100608.84;4968935;28;20420;-49
2024/01/30 10:34:57;;;;;;;12.30;6.13;;;;;;;4.67;78.21;100584.72;4968733;28;20049;-51
2024/01/30 10:37:25;;;;;;;17.00;6.82;;;;;;;4.92;77.72;100618.31;5002308;28;20046;-52
2024/01/30 10:39:53;;;;;;;18.08;7.03;;;;;;;4.78;78.08;100577.03;5004941;28;20515;-50
2024/01/30 10:42:19;;;;;;;12.32;6.13;;;;;;;4.89;77.12;100579.63;4987664;28;20065;-49
2024/01/30 10:45:09;;;;;;;15.82;6.90;;;;;;;5.13;77.29;100594.31;5005355;28;20045;-48
2024/01/30 10:47:38;;;;;;;15.57;6.22;;;;;;;5.29;76.29;100601.19;5005337;28;20549;-50
2024/01/30 10:50:04;;;;;;;;;;;;;;;5.34;75.49;100609.84;5004678;28;20042;-47
2024/01/30 10:52:32;;;;;;;14.95;5.93;;;;;;;5.38;75.24;100604.69;5006385;28;19982;-49
2024/01/30 10:54:59;;;;;;;13.93;6.68;;;;;;;5.42;74.77;100610.69;5007339;28;20042;-49
2024/01/30 10:57:26;;;;;;;15.95;6.78;;;;;;;5.40;74.77;100615.84;4975328;28;20065;-50
2024/01/30 10:59:55;;;;;;;11.98;5.30;;;;;;;5.30;74.17;100603.78;5008024;28;20037;-52
2024/01/30 11:02:23;;;;;;;14.82;6.05;;;;;;;5.03;74.20;100594.28;5007633;28;20429;-48
2024/01/30 11:04:50;;;;;;;12.50;5.57;;;;;;;5.09;73.81;100603.75;4966842;28;20120;-50
2024/01/30 11:07:28;;;;;;;12.60;6.05;;;;;;;5.07;74.18;100614.06;4988290;28;20046;-57
2024/01/30 11:10:03;;;;;;;15.20;6.90;;;;;;;5.13;74.16;100618.34;4989290;28;20042;-50
2024/01/30 11:12:33;;;;;;;13.88;6.25;;;;;;;5.13;75.24;100621.78;4989735;28;20062;-54
2024/01/30 11:15:08;;;;;;;14.73;6.40;;;;;;;4.64;75.54;100560.69;4987983;28;20044;-51
2024/01/30 11:17:49;;;;;;;13.05;5.93;;;;;;;4.96;75.40;100626.06;4989919;28;20042;-51
2024/01/30 11:20:16;;;;;;;14.15;6.00;;;;;;;4.73;75.66;100589.03;4989625;28;20584;-51
2024/01/30 11:22:45;;;;;;;14.27;6.90;;;;;;;4.89;76.20;100614.00;4971962;28;20049;-51
2024/01/30 11:25:15;;;;;;;17.20;6.32;;;;;;;4.86;75.85;100623.44;4987953;28;20042;-52